sensor_id;sensor_type;location;lat;lon;timestamp;pressure;altitude;pressure_sealevel;temperature;humidity
76586;BME280;65251;51.022;13.736;2023-06-24T00:00:19;100068.31;;;16.86;87.63
76586;BME280;65251;51.022;13.736;2023-06-24T00:00:52;100059.66;;;16.84;88.35
76586;BME280;65251;51.022;13.736;2023-06-24T00:01:22;100071.84;;;16.87;86.31
76586;BME280;65251;51.022;13.736;2023-06-24T00:01:54;100072.66;;;16.87;86.65
76586;BME280;65251;51.022;13.736;2023-06-24T00:02:25;100074.53;;;16.87;87.09
76586;BME280;65251;51.022;13.736;2023-06-24T00:02:56;100070.78;;;16.88;87.78
76586;BME280;65251;51.022;13.736;2023-06-24T00:03:32;100071.63;;;16.88;87.83
76586;BME280;65251;51.022;13.736;2023-06-24T00:04:07;100068.09;;;16.88;88.29
76586;BME280;65251;51.022;13.736;2023-06-24T00:04:38;100070.56;;;16.90;86.96
76586;BME280;65251;51.022;13.736;2023-06-24T00:05:09;100067.88;;;16.90;87.55
76586;BME280;65251;51.022;13.736;2023-06-24T00:05:40;100074.91;;;16.91;87.65
76586;BME280;65251;51.022;13.736;2023-06-24T00:06:11;100079.47;;;16.90;86.89
76586;BME280;65251;51.022;13.736;2023-06-24T00:06:48;100069.28;;;16.92;87.54
76586;BME280;65251;51.022;13.736;2023-06-24T00:07:19;100063.09;;;16.92;87.01
76586;BME280;65251;51.022;13.736;2023-06-24T00:07:52;100068.25;;;16.93;87.05
76586;BME280;65251;51.022;13.736;2023-06-24T00:08:27;100069.28;;;16.92;86.50
76586;BME280;65251;51.022;13.736;2023-06-24T00:09:04;100065.56;;;16.93;86.59
76586;BME280;65251;51.022;13.736;2023-06-24T00:09:35;100061.22;;;16.92;87.30
76586;BME280;65251;51.022;13.736;2023-06-24T00:10:07;100064.75;;;16.93;87.46
76586;BME280;65251;51.022;13.736;2023-06-24T00:10:38;100069.06;;;16.94;87.48
76586;BME280;65251;51.022;13.736;2023-06-24T00:11:09;100063.69;;;16.94;87.14
76586;BME280;65251;51.022;13.736;2023-06-24T00:11:40;100068.03;;;16.95;87.97
76586;BME280;65251;51.022;13.736;2023-06-24T00:12:11;100066.75;;;16.97;87.57
76586;BME280;65251;51.022;13.736;2023-06-24T00:12:49;100063.25;;;16.97;87.01
76586;BME280;65251;51.022;13.736;2023-06-24T00:13:21;100067.59;;;16.98;87.70
76586;BME280;65251;51.022;13.736;2023-06-24T00:13:52;100063.47;;;16.95;87.49
76586;BME280;65251;51.022;13.736;2023-06-24T00:14:23;100067.22;;;16.94;86.41
76586;BME280;65251;51.022;13.736;2023-06-24T00:14:56;100061.81;;;16.94;87.34
76586;BME280;65251;51.022;13.736;2023-06-24T00:15:27;100066.97;;;16.96;87.98
76586;BME280;65251;51.022;13.736;2023-06-24T00:15:59;100062.41;;;16.96;87.73
76586;BME280;65251;51.022;13.736;2023-06-24T00:16:30;100064.28;;;16.96;86.73
76586;BME280;65251;51.022;13.736;2023-06-24T00:17:01;100065.09;;;16.96;86.81
76586;BME280;65251;51.022;13.736;2023-06-24T00:17:32;100065.09;;;16.96;86.56
76586;BME280;65251;51.022;13.736;2023-06-24T00:18:03;100070.50;;;16.96;87.71
76586;BME280;65251;51.022;13.736;2023-06-24T00:18:37;100068.63;;;16.97;86.76
76586;BME280;65251;51.022;13.736;2023-06-24T00:19:11;100064.88;;;16.98;86.59
76586;BME280;65251;51.022;13.736;2023-06-24T00:19:42;100060.31;;;16.98;87.54
76586;BME280;65251;51.022;13.736;2023-06-24T00:20:14;100065.72;;;16.98;87.48
76586;BME280;65251;51.022;13.736;2023-06-24T00:20:45;100069.19;;;16.99;88.13
76586;BME280;65251;51.022;13.736;2023-06-24T00:21:16;100067.22;;;16.94;88.85
76586;BME280;65251;51.022;13.736;2023-06-24T00:21:48;100065.94;;;16.97;87.61
76586;BME280;65251;51.022;13.736;2023-06-24T00:22:21;100069.91;;;16.94;87.88
76586;BME280;65251;51.022;13.736;2023-06-24T00:22:52;100060.78;;;16.95;87.32
76586;BME280;65251;51.022;13.736;2023-06-24T00:23:23;100063.69;;;16.94;87.36
76586;BME280;65251;51.022;13.736;2023-06-24T00:23:56;100070.94;;;16.93;87.39
76586;BME280;65251;51.022;13.736;2023-06-24T00:24:27;100058.75;;;16.91;88.22
76586;BME280;65251;51.022;13.736;2023-06-24T00:24:58;100063.09;;;16.92;87.00
76586;BME280;65251;51.022;13.736;2023-06-24T00:25:31;100056.66;;;16.93;88.03
76586;BME280;65251;51.022;13.736;2023-06-24T00:26:01;100060.19;;;16.93;87.07
76586;BME280;65251;51.022;13.736;2023-06-24T00:26:32;100059.13;;;16.94;88.03
76586;BME280;65251;51.022;13.736;2023-06-24T00:27:03;100053.75;;;16.94;87.53
76586;BME280;65251;51.022;13.736;2023-06-24T00:27:35;100051.44;;;16.98;88.01
76586;BME280;65251;51.022;13.736;2023-06-24T00:28:06;100048.72;;;16.98;86.80
76586;BME280;65251;51.022;13.736;2023-06-24T00:28:36;100051.44;;;16.98;87.46
76586;BME280;65251;51.022;13.736;2023-06-24T00:29:08;100046.88;;;16.98;87.80
76586;BME280;65251;51.022;13.736;2023-06-24T00:29:39;100050.81;;;16.96;86.97
76586;BME280;65251;51.022;13.736;2023-06-24T00:30:11;100053.28;;;16.97;86.82
76586;BME280;65251;51.022;13.736;2023-06-24T00:30:43;100048.59;;;16.93;87.88
76586;BME280;65251;51.022;13.736;2023-06-24T00:31:15;100050.44;;;16.92;88.13
76586;BME280;65251;51.022;13.736;2023-06-24T00:31:46;100052.09;;;16.93;88.74
76586;BME280;65251;51.022;13.736;2023-06-24T00:32:17;100047.53;;;16.94;88.83
76586;BME280;65251;51.022;13.736;2023-06-24T00:32:48;100041.94;;;16.95;87.91
76586;BME280;65251;51.022;13.736;2023-06-24T00:33:19;100043.56;;;16.96;87.83
76586;BME280;65251;51.022;13.736;2023-06-24T00:33:51;100041.47;;;16.98;87.88
76586;BME280;65251;51.022;13.736;2023-06-24T00:34:22;100041.69;;;16.97;87.36
76586;BME280;65251;51.022;13.736;2023-06-24T00:34:54;100042.28;;;16.99;87.08
76586;BME280;65251;51.022;13.736;2023-06-24T00:35:28;100040.41;;;16.99;88.50
76586;BME280;65251;51.022;13.736;2023-06-24T00:35:59;100042.28;;;16.99;87.06
76586;BME280;65251;51.022;13.736;2023-06-24T00:36:29;100042.28;;;16.99;88.28
76586;BME280;65251;51.022;13.736;2023-06-24T00:37:02;100043.91;;;17.00;86.84
76586;BME280;65251;51.022;13.736;2023-06-24T00:37:33;100040.19;;;17.01;87.54
76586;BME280;65251;51.022;13.736;2023-06-24T00:38:04;100035.59;;;17.01;86.40
76586;BME280;65251;51.022;13.736;2023-06-24T00:38:36;100047.81;;;17.04;87.39
76586;BME280;65251;51.022;13.736;2023-06-24T00:39:07;100039.72;;;17.04;88.13
76586;BME280;65251;51.022;13.736;2023-06-24T00:39:40;100037.84;;;17.04;86.91
76586;BME280;65251;51.022;13.736;2023-06-24T00:40:11;100040.53;;;17.04;86.33
76586;BME280;65251;51.022;13.736;2023-06-24T00:40:42;100036.22;;;17.03;86.74
76586;BME280;65251;51.022;13.736;2023-06-24T00:41:14;100042.19;;;17.05;86.61
76586;BME280;65251;51.022;13.736;2023-06-24T00:41:46;100037.63;;;17.06;86.38
76586;BME280;65251;51.022;13.736;2023-06-24T00:42:17;100035.97;;;17.05;87.20
76586;BME280;65251;51.022;13.736;2023-06-24T00:42:49;100037.84;;;17.04;87.15
76586;BME280;65251;51.022;13.736;2023-06-24T00:43:20;100035.16;;;17.04;86.95
76586;BME280;65251;51.022;13.736;2023-06-24T00:43:51;100030.81;;;17.03;86.74
76586;BME280;65251;51.022;13.736;2023-06-24T00:44:23;100040.78;;;17.03;87.81
76586;BME280;65251;51.022;13.736;2023-06-24T00:44:54;100035.00;;;16.99;87.07
76586;BME280;65251;51.022;13.736;2023-06-24T00:45:25;100038.53;;;17.00;87.84
76586;BME280;65251;51.022;13.736;2023-06-24T00:45:57;100039.34;;;17.00;87.74
76586;BME280;65251;51.022;13.736;2023-06-24T00:46:29;100041.00;;;17.01;87.73
76586;BME280;65251;51.022;13.736;2023-06-24T00:47:02;100039.94;;;17.02;87.31
76586;BME280;65251;51.022;13.736;2023-06-24T00:47:34;100041.81;;;17.02;87.29
76586;BME280;65251;51.022;13.736;2023-06-24T00:48:05;100043.47;;;17.03;86.71
76586;BME280;65251;51.022;13.736;2023-06-24T00:48:36;100039.13;;;17.02;86.83
76586;BME280;65251;51.022;13.736;2023-06-24T00:49:08;100039.13;;;17.02;87.10
76586;BME280;65251;51.022;13.736;2023-06-24T00:49:39;100039.94;;;17.02;88.12
76586;BME280;65251;51.022;13.736;2023-06-24T00:50:10;100044.75;;;17.00;87.96
76586;BME280;65251;51.022;13.736;2023-06-24T00:50:42;100039.34;;;17.00;88.26
76586;BME280;65251;51.022;13.736;2023-06-24T00:51:15;100038.31;;;17.01;88.59
76586;BME280;65251;51.022;13.736;2023-06-24T00:51:46;100033.97;;;17.00;88.13
76586;BME280;65251;51.022;13.736;2023-06-24T00:52:20;100039.34;;;17.00;86.71
76586;BME280;65251;51.022;13.736;2023-06-24T00:52:52;100038.53;;;17.00;88.24
76586;BME280;65251;51.022;13.736;2023-06-24T00:53:23;100033.97;;;17.00;88.10
76586;BME280;65251;51.022;13.736;2023-06-24T00:53:55;100034.78;;;17.01;87.32
76586;BME280;65251;51.022;13.736;2023-06-24T00:54:27;100039.13;;;17.02;87.14
76586;BME280;65251;51.022;13.736;2023-06-24T00:55:01;100037.25;;;17.02;87.48
76586;BME280;65251;51.022;13.736;2023-06-24T00:55:33;100045.94;;;17.04;87.80
76586;BME280;65251;51.022;13.736;2023-06-24T00:56:05;100037.84;;;17.04;87.54
76586;BME280;65251;51.022;13.736;2023-06-24T00:56:37;100040.53;;;17.04;87.11
76586;BME280;65251;51.022;13.736;2023-06-24T00:57:09;100036.81;;;17.05;87.35
76586;BME280;65251;51.022;13.736;2023-06-24T00:57:41;100039.50;;;17.05;86.73
76586;BME280;65251;51.022;13.736;2023-06-24T00:58:14;100038.44;;;17.06;87.49
76586;BME280;65251;51.022;13.736;2023-06-24T00:58:47;100039.28;;;17.07;87.11
76586;BME280;65251;51.022;13.736;2023-06-24T00:59:19;100037.41;;;17.07;87.86
76586;BME280;65251;51.022;13.736;2023-06-24T00:59:50;100034.72;;;17.07;87.35
76586;BME280;65251;51.022;13.736;2023-06-24T01:00:23;100037.41;;;17.07;87.84
76586;BME280;65251;51.022;13.736;2023-06-24T01:00:57;100035.53;;;17.08;88.54
76586;BME280;65251;51.022;13.736;2023-06-24T01:01:32;100040.91;;;17.08;88.06
76586;BME280;65251;51.022;13.736;2023-06-24T01:02:04;100029.09;;;17.09;87.19
76586;BME280;65251;51.022;13.736;2023-06-24T01:02:36;100030.38;;;17.06;87.12
76586;BME280;65251;51.022;13.736;2023-06-24T01:03:09;100035.53;;;17.08;87.16
76586;BME280;65251;51.022;13.736;2023-06-24T01:03:41;100034.72;;;17.07;87.73
76586;BME280;65251;51.022;13.736;2023-06-24T01:04:13;100028.28;;;17.08;88.02
76586;BME280;65251;51.022;13.736;2023-06-24T01:04:44;100032.84;;;17.08;87.11
76586;BME280;65251;51.022;13.736;2023-06-24T01:05:15;100025.81;;;17.07;87.04
76586;BME280;65251;51.022;13.736;2023-06-24T01:05:48;100036.56;;;17.07;87.70
76586;BME280;65251;51.022;13.736;2023-06-24T01:06:19;100040.09;;;17.07;88.32
76586;BME280;65251;51.022;13.736;2023-06-24T01:06:50;100036.56;;;17.07;87.42
76586;BME280;65251;51.022;13.736;2023-06-24T01:07:22;100035.75;;;17.06;87.72
76586;BME280;65251;51.022;13.736;2023-06-24T01:07:53;100029.56;;;17.06;87.92
76586;BME280;65251;51.022;13.736;2023-06-24T01:08:26;100039.88;;;17.09;88.65
76586;BME280;65251;51.022;13.736;2023-06-24T01:08:59;100037.19;;;17.09;88.17
76586;BME280;65251;51.022;13.736;2023-06-24T01:09:30;100048.53;;;17.11;87.78
76586;BME280;65251;51.022;13.736;2023-06-24T01:10:02;100036.13;;;17.10;89.10
76586;BME280;65251;51.022;13.736;2023-06-24T01:10:36;100034.03;;;17.12;87.74
76586;BME280;65251;51.022;13.736;2023-06-24T01:11:07;100037.78;;;17.11;87.29
76586;BME280;65251;51.022;13.736;2023-06-24T01:11:38;100038.81;;;17.10;88.08
76586;BME280;65251;51.022;13.736;2023-06-24T01:12:10;100036.72;;;17.12;88.46
76586;BME280;65251;51.022;13.736;2023-06-24T01:12:41;100039.19;;;17.13;88.59
76586;BME280;65251;51.022;13.736;2023-06-24T01:13:14;100039.19;;;17.13;88.12
76586;BME280;65251;51.022;13.736;2023-06-24T01:13:46;100038.59;;;17.11;87.27
76586;BME280;65251;51.022;13.736;2023-06-24T01:14:17;100032.16;;;17.12;87.66
76586;BME280;65251;51.022;13.736;2023-06-24T01:14:50;100041.06;;;17.13;88.47
76586;BME280;65251;51.022;13.736;2023-06-24T01:15:22;100037.31;;;17.14;88.91
76586;BME280;65251;51.022;13.736;2023-06-24T01:15:53;100037.31;;;17.14;88.03
76586;BME280;65251;51.022;13.736;2023-06-24T01:16:36;100040.84;;;17.14;87.43
76586;BME280;65251;51.022;13.736;2023-06-24T01:17:13;100037.31;;;17.14;88.50
76586;BME280;65251;51.022;13.736;2023-06-24T01:17:54;100040.00;;;17.14;86.98
76586;BME280;65251;51.022;13.736;2023-06-24T01:18:34;100034.63;;;17.14;88.37
76586;BME280;65251;51.022;13.736;2023-06-24T01:20:25;100036.94;;;17.10;88.48
76586;BME280;65251;51.022;13.736;2023-06-24T01:21:05;100037.78;;;17.11;88.09
76586;BME280;65251;51.022;13.736;2023-06-24T01:22:04;100038.00;;;17.09;87.80
76586;BME280;65251;51.022;13.736;2023-06-24T01:23:06;100036.13;;;17.10;89.40
76586;BME280;65251;51.022;13.736;2023-06-24T01:24:04;100037.53;;;17.12;88.19
76586;BME280;65251;51.022;13.736;2023-06-24T01:24:55;100037.31;;;17.14;88.18
76586;BME280;65251;51.022;13.736;2023-06-24T01:25:45;100030.88;;;17.15;88.96
76586;BME280;65251;51.022;13.736;2023-06-24T01:26:35;100037.09;;;17.15;88.82
76586;BME280;65251;51.022;13.736;2023-06-24T01:27:26;100031.72;;;17.15;88.10
76586;BME280;65251;51.022;13.736;2023-06-24T01:28:18;100033.56;;;17.15;89.10
76586;BME280;65251;51.022;13.736;2023-06-24T01:30:23;100042.03;;;17.18;88.16
76586;BME280;65251;51.022;13.736;2023-06-24T01:31:27;100032.88;;;17.19;88.77
76586;BME280;65251;51.022;13.736;2023-06-24T01:32:06;100045.28;;;17.20;87.95
76586;BME280;65251;51.022;13.736;2023-06-24T01:32:45;100040.72;;;17.21;88.90
76586;BME280;65251;51.022;13.736;2023-06-24T01:33:26;100038.03;;;17.21;87.94
76586;BME280;65251;51.022;13.736;2023-06-24T01:34:10;100042.38;;;17.22;88.15
76586;BME280;65251;51.022;13.736;2023-06-24T01:34:52;100042.59;;;17.20;89.31
76586;BME280;65251;51.022;13.736;2023-06-24T01:35:30;100043.19;;;17.22;88.19
76586;BME280;65251;51.022;13.736;2023-06-24T01:36:05;100044.25;;;17.21;88.25
76586;BME280;65251;51.022;13.736;2023-06-24T01:36:43;100045.88;;;17.22;88.95
76586;BME280;65251;51.022;13.736;2023-06-24T01:37:21;100042.13;;;17.23;89.18
76586;BME280;65251;51.022;13.736;2023-06-24T01:37:59;100045.66;;;17.24;87.93
76586;BME280;65251;51.022;13.736;2023-06-24T01:38:52;100038.41;;;17.25;89.29
76586;BME280;65251;51.022;13.736;2023-06-24T01:39:28;100036.53;;;17.25;89.49
76586;BME280;65251;51.022;13.736;2023-06-24T01:40:08;100041.09;;;17.25;89.00
76586;BME280;65251;51.022;13.736;2023-06-24T01:40:44;100036.31;;;17.27;88.17
76586;BME280;65251;51.022;13.736;2023-06-24T01:41:22;100045.44;;;17.26;87.87
76586;BME280;65251;51.022;13.736;2023-06-24T01:41:57;100045.19;;;17.27;88.21
76586;BME280;65251;51.022;13.736;2023-06-24T01:42:31;100039.00;;;17.27;87.97
76586;BME280;65251;51.022;13.736;2023-06-24T01:43:04;100043.34;;;17.28;88.79
76586;BME280;65251;51.022;13.736;2023-06-24T01:43:37;100039.59;;;17.29;88.11
76586;BME280;65251;51.022;13.736;2023-06-24T01:44:16;100049.53;;;17.28;87.80
76586;BME280;65251;51.022;13.736;2023-06-24T01:44:50;100043.94;;;17.30;88.73
76586;BME280;65251;51.022;13.736;2023-06-24T01:45:24;100043.94;;;17.30;88.17
76586;BME280;65251;51.022;13.736;2023-06-24T01:45:57;100032.31;;;17.29;88.82
76586;BME280;65251;51.022;13.736;2023-06-24T01:46:30;100039.34;;;17.30;89.51
76586;BME280;65251;51.022;13.736;2023-06-24T01:47:05;100034.78;;;17.31;88.90
76586;BME280;65251;51.022;13.736;2023-06-24T01:47:40;100032.09;;;17.31;87.91
76586;BME280;65251;51.022;13.736;2023-06-24T01:48:16;100031.06;;;17.32;88.46
76586;BME280;65251;51.022;13.736;2023-06-24T01:48:49;100043.47;;;17.33;88.69
76586;BME280;65251;51.022;13.736;2023-06-24T01:49:28;100040.56;;;17.34;88.36
76586;BME280;65251;51.022;13.736;2023-06-24T01:50:03;100036.22;;;17.33;87.91
76586;BME280;65251;51.022;13.736;2023-06-24T01:50:36;100045.13;;;17.34;88.65
76586;BME280;65251;51.022;13.736;2023-06-24T01:51:11;100035.75;;;17.36;88.95
76586;BME280;65251;51.022;13.736;2023-06-24T01:51:46;100035.97;;;17.35;88.82
76586;BME280;65251;51.022;13.736;2023-06-24T01:52:21;100041.16;;;17.36;88.22
76586;BME280;65251;51.022;13.736;2023-06-24T01:52:55;100051.69;;;17.38;88.21
76586;BME280;65251;51.022;13.736;2023-06-24T01:53:28;100041.16;;;17.36;88.12
76586;BME280;65251;51.022;13.736;2023-06-24T01:54:07;100046.31;;;17.38;87.69
76586;BME280;65251;51.022;13.736;2023-06-24T01:54:42;100041.75;;;17.38;88.05
76586;BME280;65251;51.022;13.736;2023-06-24T01:55:19;100040.44;;;17.41;88.04
76586;BME280;65251;51.022;13.736;2023-06-24T01:55:54;100047.69;;;17.40;89.15
76586;BME280;65251;51.022;13.736;2023-06-24T01:56:27;100041.47;;;17.40;88.38
76586;BME280;65251;51.022;13.736;2023-06-24T01:57:03;100049.56;;;17.40;89.08
76586;BME280;65251;51.022;13.736;2023-06-24T01:57:38;100048.75;;;17.39;88.41
76586;BME280;65251;51.022;13.736;2023-06-24T01:58:13;100051.22;;;17.41;89.02
76586;BME280;65251;51.022;13.736;2023-06-24T01:58:51;100045.00;;;17.40;87.55
76586;BME280;65251;51.022;13.736;2023-06-24T01:59:27;100044.16;;;17.40;88.25
76586;BME280;65251;51.022;13.736;2023-06-24T02:00:00;100041.25;;;17.41;88.27
76586;BME280;65251;51.022;13.736;2023-06-24T02:00:37;100049.34;;;17.41;88.15
76586;BME280;65251;51.022;13.736;2023-06-24T02:01:09;100050.38;;;17.40;88.62
76586;BME280;65251;51.022;13.736;2023-06-24T02:01:42;100045.81;;;17.41;87.85
76586;BME280;65251;51.022;13.736;2023-06-24T02:02:15;100043.94;;;17.41;87.97
76586;BME280;65251;51.022;13.736;2023-06-24T02:02:50;100046.03;;;17.39;88.09
76586;BME280;65251;51.022;13.736;2023-06-24T02:03:22;100048.50;;;17.41;88.71
76586;BME280;65251;51.022;13.736;2023-06-24T02:03:56;100052.03;;;17.41;88.51
76586;BME280;65251;51.022;13.736;2023-06-24T02:04:28;100052.03;;;17.41;87.99
76586;BME280;65251;51.022;13.736;2023-06-24T02:05:03;100048.28;;;17.42;88.68
76586;BME280;65251;51.022;13.736;2023-06-24T02:05:40;100043.94;;;17.41;88.42
76586;BME280;65251;51.022;13.736;2023-06-24T02:06:14;100046.63;;;17.41;88.09
76586;BME280;65251;51.022;13.736;2023-06-24T02:06:47;100044.16;;;17.40;88.55
76586;BME280;65251;51.022;13.736;2023-06-24T02:07:20;100049.94;;;17.43;87.99
76586;BME280;65251;51.022;13.736;2023-06-24T02:07:53;100042.91;;;17.42;87.76
76586;BME280;65251;51.022;13.736;2023-06-24T02:08:31;100051.81;;;17.43;89.03
76586;BME280;65251;51.022;13.736;2023-06-24T02:09:06;100043.50;;;17.44;88.89
76586;BME280;65251;51.022;13.736;2023-06-24T02:09:39;100043.72;;;17.43;87.79
76586;BME280;65251;51.022;13.736;2023-06-24T02:10:12;100048.88;;;17.44;88.98
76586;BME280;65251;51.022;13.736;2023-06-24T02:10:46;100045.38;;;17.44;88.55
76586;BME280;65251;51.022;13.736;2023-06-24T02:11:19;100045.72;;;17.47;88.10
76586;BME280;65251;51.022;13.736;2023-06-24T02:11:53;100042.44;;;17.45;88.18
76586;BME280;65251;51.022;13.736;2023-06-24T02:12:27;100039.75;;;17.45;87.83
76586;BME280;65251;51.022;13.736;2023-06-24T02:12:59;100038.09;;;17.44;87.72
76586;BME280;65251;51.022;13.736;2023-06-24T02:13:31;100039.75;;;17.45;87.98
76586;BME280;65251;51.022;13.736;2023-06-24T02:14:07;100041.84;;;17.43;88.85
76586;BME280;65251;51.022;13.736;2023-06-24T02:14:40;100042.44;;;17.45;88.79
76586;BME280;65251;51.022;13.736;2023-06-24T02:15:12;100036.22;;;17.45;88.83
76586;BME280;65251;51.022;13.736;2023-06-24T02:15:46;100041.63;;;17.45;87.99
76586;BME280;65251;51.022;13.736;2023-06-24T02:16:20;100036.00;;;17.46;88.89
76586;BME280;65251;51.022;13.736;2023-06-24T02:16:55;100031.44;;;17.47;88.58
76586;BME280;65251;51.022;13.736;2023-06-24T02:17:27;100034.13;;;17.47;88.47
76586;BME280;65251;51.022;13.736;2023-06-24T02:18:02;100035.78;;;17.48;88.21
76586;BME280;65251;51.022;13.736;2023-06-24T02:18:38;100032.03;;;17.49;89.13
76586;BME280;65251;51.022;13.736;2023-06-24T02:19:13;100036.38;;;17.50;89.23
76586;BME280;65251;51.022;13.736;2023-06-24T02:19:48;100036.38;;;17.50;88.47
76586;BME280;65251;51.022;13.736;2023-06-24T02:20:21;100035.31;;;17.51;88.79
76586;BME280;65251;51.022;13.736;2023-06-24T02:20:59;100036.13;;;17.51;88.89
76586;BME280;65251;51.022;13.736;2023-06-24T02:21:32;100037.78;;;17.52;88.65
76586;BME280;65251;51.022;13.736;2023-06-24T02:22:07;100035.91;;;17.53;88.82
76586;BME280;65251;51.022;13.736;2023-06-24T02:22:40;100043.75;;;17.54;88.83
76586;BME280;65251;51.022;13.736;2023-06-24T02:23:12;100035.69;;;17.54;89.12
76586;BME280;65251;51.022;13.736;2023-06-24T02:23:44;100032.75;;;17.56;88.25
76586;BME280;65251;51.022;13.736;2023-06-24T02:24:16;100036.84;;;17.58;88.42
76586;BME280;65251;51.022;13.736;2023-06-24T02:24:49;100040.63;;;17.58;88.49
76586;BME280;65251;51.022;13.736;2023-06-24T02:25:21;100041.16;;;17.60;88.84
76586;BME280;65251;51.022;13.736;2023-06-24T02:25:53;100034.72;;;17.61;88.20
76586;BME280;65251;51.022;13.736;2023-06-24T02:26:25;100036.59;;;17.60;88.51
76586;BME280;65251;51.022;13.736;2023-06-24T02:26:57;100040.34;;;17.59;88.58
76586;BME280;65251;51.022;13.736;2023-06-24T02:27:30;100039.31;;;17.60;88.51
76586;BME280;65251;51.022;13.736;2023-06-24T02:28:01;100035.78;;;17.60;88.30
76586;BME280;65251;51.022;13.736;2023-06-24T02:28:33;100031.22;;;17.60;88.09
76586;BME280;65251;51.022;13.736;2023-06-24T02:29:08;100036.38;;;17.62;88.50
76586;BME280;65251;51.022;13.736;2023-06-24T02:29:40;100042.59;;;17.62;88.16
76586;BME280;65251;51.022;13.736;2023-06-24T02:30:12;100034.41;;;17.57;88.68
76586;BME280;65251;51.022;13.736;2023-06-24T02:30:46;100039.88;;;17.62;88.31
76586;BME280;65251;51.022;13.736;2023-06-24T02:31:18;100040.50;;;17.64;88.13
76586;BME280;65251;51.022;13.736;2023-06-24T02:31:48;100046.50;;;17.66;87.08
76586;BME280;65251;51.022;13.736;2023-06-24T02:32:22;100045.91;;;17.64;88.09
76586;BME280;65251;51.022;13.736;2023-06-24T02:32:53;100042.97;;;17.66;87.93
76586;BME280;65251;51.022;13.736;2023-06-24T02:33:25;100042.16;;;17.65;86.88
76586;BME280;65251;51.022;13.736;2023-06-24T02:33:57;100039.47;;;17.65;87.71
76586;BME280;65251;51.022;13.736;2023-06-24T02:34:28;100038.41;;;17.66;88.01
76586;BME280;65251;51.022;13.736;2023-06-24T02:34:59;100035.50;;;17.68;87.94
76586;BME280;65251;51.022;13.736;2023-06-24T02:35:31;100041.69;;;17.68;87.98
76586;BME280;65251;51.022;13.736;2023-06-24T02:36:02;100040.88;;;17.68;87.53
76586;BME280;65251;51.022;13.736;2023-06-24T02:36:32;100041.47;;;17.70;87.69
76586;BME280;65251;51.022;13.736;2023-06-24T02:37:05;100039.59;;;17.70;88.20
76586;BME280;65251;51.022;13.736;2023-06-24T02:37:36;100036.31;;;17.68;87.70
76586;BME280;65251;51.022;13.736;2023-06-24T02:38:06;100045.00;;;17.70;87.45
76586;BME280;65251;51.022;13.736;2023-06-24T02:38:37;100036.91;;;17.70;87.33
76586;BME280;65251;51.022;13.736;2023-06-24T02:39:09;100034.22;;;17.70;87.53
76586;BME280;65251;51.022;13.736;2023-06-24T02:39:40;100046.03;;;17.69;87.21
76586;BME280;65251;51.022;13.736;2023-06-24T02:40:14;100037.97;;;17.69;87.16
76586;BME280;65251;51.022;13.736;2023-06-24T02:40:46;100036.31;;;17.68;87.13
76586;BME280;65251;51.022;13.736;2023-06-24T02:41:17;100046.28;;;17.68;86.83
76586;BME280;65251;51.022;13.736;2023-06-24T02:41:48;100039.00;;;17.68;87.15
76586;BME280;65251;51.022;13.736;2023-06-24T02:42:20;100040.06;;;17.67;87.10
76586;BME280;65251;51.022;13.736;2023-06-24T02:42:51;100031.97;;;17.67;87.21
76586;BME280;65251;51.022;13.736;2023-06-24T02:43:22;100032.78;;;17.68;87.90
76586;BME280;65251;51.022;13.736;2023-06-24T02:43:53;100033.84;;;17.67;87.58
76586;BME280;65251;51.022;13.736;2023-06-24T02:44:23;100037.13;;;17.69;87.08
76586;BME280;65251;51.022;13.736;2023-06-24T02:44:55;100040.88;;;17.68;87.77
76586;BME280;65251;51.022;13.736;2023-06-24T02:45:28;100040.88;;;17.68;87.78
76586;BME280;65251;51.022;13.736;2023-06-24T02:46:01;100041.69;;;17.68;87.41
76586;BME280;65251;51.022;13.736;2023-06-24T02:46:36;100027.25;;;17.63;87.82
76586;BME280;65251;51.022;13.736;2023-06-24T02:47:11;100038.78;;;17.70;87.03
76586;BME280;65251;51.022;13.736;2023-06-24T02:47:47;100036.31;;;17.68;87.06
76586;BME280;65251;51.022;13.736;2023-06-24T02:48:21;100029.94;;;17.63;87.48
76586;BME280;65251;51.022;13.736;2023-06-24T02:48:53;100042.28;;;17.70;87.04
76586;BME280;65251;51.022;13.736;2023-06-24T02:49:25;100040.66;;;17.69;87.52
76586;BME280;65251;51.022;13.736;2023-06-24T02:49:59;100043.94;;;17.71;87.17
76586;BME280;65251;51.022;13.736;2023-06-24T02:50:30;100045.81;;;17.71;87.51
76586;BME280;65251;51.022;13.736;2023-06-24T02:51:03;100044.75;;;17.72;87.12
76586;BME280;65251;51.022;13.736;2023-06-24T02:51:37;100040.41;;;17.71;86.92
76586;BME280;65251;51.022;13.736;2023-06-24T02:52:09;100036.91;;;17.70;86.89
76586;BME280;65251;51.022;13.736;2023-06-24T02:52:40;100046.63;;;17.71;87.63
76586;BME280;65251;51.022;13.736;2023-06-24T02:53:12;100044.16;;;17.70;87.03
76586;BME280;65251;51.022;13.736;2023-06-24T02:53:46;100039.59;;;17.70;87.53
76586;BME280;65251;51.022;13.736;2023-06-24T02:54:17;100039.59;;;17.70;87.36
76586;BME280;65251;51.022;13.736;2023-06-24T02:54:49;100043.94;;;17.71;87.02
76586;BME280;65251;51.022;13.736;2023-06-24T02:55:20;100040.66;;;17.69;87.03
76586;BME280;65251;51.022;13.736;2023-06-24T02:55:53;100047.09;;;17.68;87.10
76586;BME280;65251;51.022;13.736;2023-06-24T02:56:26;100047.09;;;17.68;87.15
76586;BME280;65251;51.022;13.736;2023-06-24T02:56:59;100045.44;;;17.67;86.58